Time;durP1;ratioP1;P1;durP2;ratioP2;P2;SDS_P1;SDS_P2;PMS_P1;PMS_P2;Temp;Humidity;BMP_temperature;BMP_pressure;BME280_temperature;BME280_humidity;BME280_pressure;Samples;Min_cycle;Max_cycle;Signal;HPM_P1;HPM_P2
2023/09/23 00:00:57;;;;;;;15.32;8.90;;;;;;;-144.30;74.84;84565.56;5070304;28;20255;-55
2023/09/23 00:03:25;;;;;;;14.43;8.30;;;;;;;-144.30;75.21;84551.66;5070228;28;20196;-55
2023/09/23 00:05:52;;;;;;;9.88;7.50;;;;;;;-144.30;74.77;84569.53;5070143;28;20207;-57
2023/09/23 00:08:19;;;;;;;15.50;8.35;;;;;;;-144.30;74.55;84959.13;5069661;28;20200;-56
2023/09/23 00:10:50;;;;;;;11.38;7.88;;;;;;;-144.30;74.60;84597.38;5064876;28;20212;-56
2023/09/23 00:13:18;;;;;;;20.15;9.00;;;;;;;-144.30;74.59;84531.78;5069471;28;20765;-57
2023/09/23 00:15:44;;;;;;;15.73;8.32;;;;;;;-144.30;74.31;84541.72;5069435;28;20581;-56
2023/09/23 00:18:17;;;;;;;14.98;8.20;;;;;;;-144.30;74.42;84565.56;5069554;28;20228;-56
2023/09/23 00:20:44;;;;;;;18.88;8.50;;;;;;;-144.30;74.33;84549.69;5073725;28;20254;-57
2023/09/23 00:23:11;;;;;;;17.13;7.55;;;;;;;-144.30;74.11;84545.69;5067861;28;20200;-56
2023/09/23 00:25:38;;;;;;;19.92;8.00;;;;;;;-144.30;73.65;84535.75;5069125;28;20587;-56
2023/09/23 00:28:10;;;;;;;10.20;7.35;;;;;;;-144.30;73.64;84541.72;5069839;28;20261;-56
2023/09/23 00:30:37;;;;;;;11.82;7.43;;;;;;;-144.30;74.09;84529.81;5069764;28;20230;-57
2023/09/23 00:33:05;;;;;;;14.82;7.43;;;;;;;-144.30;74.67;84605.31;5069832;28;20270;-56
2023/09/23 00:35:34;;;;;;;14.23;7.90;;;;;;;-144.30;75.28;84635.13;5069232;28;20637;-61
2023/09/23 00:38:02;;;;;;;13.88;7.40;;;;;;;-144.30;75.45;84583.47;5065604;28;20273;-62
2023/09/23 00:40:32;;;;;;;17.95;8.93;;;;;;;-144.30;75.67;84605.31;5069118;28;20204;-62
2023/09/23 00:43:11;;;;;;;17.17;7.90;;;;;;;-144.30;76.34;84625.19;5069569;28;20222;-62
2023/09/23 00:45:45;;;;;;;11.80;7.55;;;;;;;-144.30;76.76;84599.34;5069469;28;20257;-63
2023/09/23 00:48:13;;;;;;;17.88;8.55;;;;;;;-144.30;77.13;84583.47;5069140;28;20199;-62
2023/09/23 00:50:43;;;;;;;15.50;7.53;;;;;;;-144.30;77.45;84649.03;5069362;28;20578;-62
2023/09/23 00:53:11;;;;;;;10.93;7.45;;;;;;;-144.30;77.79;84660.97;5068973;28;20200;-62
2023/09/23 00:55:42;;;;;;;8.02;7.22;;;;;;;-144.30;77.97;84657.00;5068758;28;20208;-56
2023/09/23 00:58:14;;;;;;;14.82;7.60;;;;;;;-144.30;78.67;84666.94;5068173;28;20230;-62
2023/09/23 01:00:44;;;;;;;15.95;7.85;;;;;;;-144.30;78.52;84666.94;5067472;28;20336;-62
2023/09/23 01:03:11;;;;;;;14.00;7.38;;;;;;;-144.30;78.66;84645.06;5069334;28;20199;-56
2023/09/23 01:05:40;;;;;;;16.30;7.40;;;;;;;-144.30;78.46;84678.84;5069511;28;20680;-56
2023/09/23 01:08:24;;;;;;;14.13;7.97;;;;;;;-144.30;78.49;84684.81;5069245;28;20202;-62
2023/09/23 01:10:52;;;;;;;13.75;9.05;;;;;;;-144.30;78.98;84668.94;5069342;28;20190;-57
2023/09/23 01:13:23;;;;;;;14.75;7.72;;;;;;;-144.30;79.66;84672.91;5068847;28;20226;-57
2023/09/23 01:15:51;;;;;;;14.35;7.93;;;;;;;-144.30;79.05;84653.03;5068984;28;20203;-56
2023/09/23 01:18:18;;;;;;;13.13;7.95;;;;;;;-144.30;78.64;84655.00;5068724;28;20228;-57
2023/09/23 01:20:49;;;;;;;13.07;7.97;;;;;;;-144.30;78.92;84639.13;5069416;28;20286;-63
2023/09/23 01:23:18;;;;;;;26.23;7.68;;;;;;;-144.30;79.12;84694.75;5064966;28;20312;-62
2023/09/23 01:25:45;;;;;;;11.65;7.63;;;;;;;-144.30;79.33;84740.47;5068344;28;20421;-62
2023/09/23 01:28:13;;;;;;;16.77;7.78;;;;;;;-144.30;79.25;84655.00;5068802;28;20232;-62
2023/09/23 01:30:42;;;;;;;15.13;7.50;;;;;;;-144.30;79.08;84676.88;5069177;28;20199;-62
2023/09/23 01:33:12;;;;;;;15.52;7.47;;;;;;;-144.30;79.10;84694.75;5069150;28;20195;-62
2023/09/23 01:35:39;;;;;;;15.13;7.53;;;;;;;-144.30;79.46;84712.66;5069076;28;20200;-61
2023/09/23 01:38:06;;;;;;;16.10;7.63;;;;;;;-144.30;79.29;84730.53;5068083;28;20210;-62
2023/09/23 01:40:36;;;;;;;16.95;7.55;;;;;;;-144.30;79.06;84692.78;5068094;28;20667;-62
2023/09/23 01:43:04;;;;;;;13.60;7.75;;;;;;;-144.30;79.05;84472.16;5068899;28;20210;-62
2023/09/23 01:45:31;;;;;;;10.50;7.55;;;;;;;-144.30;79.49;84736.50;5068677;28;20199;-62
2023/09/23 01:47:58;;;;;;;18.95;9.07;;;;;;;-144.30;79.68;84712.66;5068774;28;20200;-62
2023/09/23 01:50:26;;;;;;;17.23;8.60;;;;;;;-144.30;80.22;84710.66;5069047;28;20671;-56
2023/09/23 01:52:54;;;;;;;15.23;8.05;;;;;;;-144.30;80.05;84720.59;5068621;28;21010;-57
2023/09/23 01:55:21;;;;;;;9.55;7.95;;;;;;;-144.30;79.92;84748.44;5068838;28;20234;-62
2023/09/23 01:57:49;;;;;;;11.10;7.68;;;;;;;-144.30;79.67;84712.66;5068716;28;20235;-57
2023/09/23 02:00:21;;;;;;;13.25;8.02;;;;;;;-144.30;79.22;84732.53;5068296;28;20196;-56
2023/09/23 02:02:49;;;;;;;18.15;9.95;;;;;;;-144.30;79.51;84736.50;5068609;28;20645;-63
2023/09/23 02:05:18;;;;;;;13.73;9.82;;;;;;;-144.30;80.20;84760.34;5068275;28;20202;-57
2023/09/23 02:07:47;;;;;;;18.17;9.93;;;;;;;-144.30;80.78;84776.25;5068830;28;20222;-56
2023/09/23 02:10:15;;;;;;;16.02;9.25;;;;;;;-144.30;81.16;84772.28;5068253;28;20610;-56
2023/09/23 02:12:43;;;;;;;18.48;9.82;;;;;;;-144.30;80.91;84728.56;5071462;28;20196;-56
2023/09/23 02:15:15;;;;;;;19.00;8.27;;;;;;;-144.30;81.49;84740.47;5072418;28;20200;-57
2023/09/23 02:17:42;;;;;;;14.13;8.75;;;;;;;-144.30;82.03;84772.28;5072259;28;20285;-56
2023/09/23 02:20:17;;;;;;;14.27;8.07;;;;;;;-144.30;82.77;84772.28;5072958;28;20716;-62
2023/09/23 02:22:45;;;;;;;16.05;8.88;;;;;;;-144.30;82.95;84808.06;5072565;28;20227;-61
2023/09/23 02:25:13;;;;;;;20.10;9.20;;;;;;;-144.30;82.38;84776.25;5072233;28;20292;-56
2023/09/23 02:27:41;;;;;;;18.70;8.98;;;;;;;-144.30;82.32;84752.41;5072214;28;20203;-61
2023/09/23 02:30:10;;;;;;;13.32;9.02;;;;;;;-144.30;81.89;84774.25;5072337;28;20668;-63
2023/09/23 02:32:42;;;;;;;21.90;9.23;;;;;;;-144.30;81.61;84736.50;5072488;28;20192;-57
2023/09/23 02:35:11;;;;;;;14.73;8.50;;;;;;;-144.30;81.99;84676.88;5072093;28;20196;-57
2023/09/23 02:37:39;;;;;;;19.63;9.10;;;;;;;-144.30;82.30;84821.97;5072600;28;20660;-63
2023/09/23 02:40:11;;;;;;;15.70;8.90;;;;;;;-144.30;82.30;84768.31;5072292;28;20200;-62
2023/09/23 02:42:42;;;;;;;15.90;8.65;;;;;;;-144.30;82.32;84798.13;5072192;28;20219;-62
2023/09/23 02:45:12;;;;;;;17.45;8.18;;;;;;;-144.30;82.45;84798.13;5072260;28;20199;-62
2023/09/23 02:47:39;;;;;;;12.77;7.22;;;;;;;-144.30;82.54;84796.13;5072216;28;20777;-62
2023/09/23 02:50:09;;;;;;;11.38;7.78;;;;;;;-144.30;83.66;84794.13;5072038;28;20609;-62
2023/09/23 02:52:38;;;;;;;16.27;8.77;;;;;;;-144.30;84.32;84835.88;5071892;28;20271;-62
2023/09/23 02:55:08;;;;;;;25.23;9.75;;;;;;;-144.30;84.42;84835.88;5072010;28;20277;-56
2023/09/23 02:57:36;;;;;;;12.55;7.50;;;;;;;-144.30;84.77;84792.16;5071477;28;20291;-61
2023/09/23 03:00:16;;;;;;;17.23;8.40;;;;;;;-144.30;84.92;84818.00;5072215;28;20265;-57
2023/09/23 03:02:45;;;;;;;15.85;9.02;;;;;;;-144.30;84.79;84863.72;5071754;28;20224;-63
2023/09/23 03:05:16;;;;;;;20.35;8.45;;;;;;;-144.30;84.47;84827.94;5071630;28;20231;-62
2023/09/23 03:07:42;;;;;;;20.73;8.95;;;;;;;-144.30;84.84;84865.69;5071748;28;20203;-62
2023/09/23 03:10:12;;;;;;;15.73;8.07;;;;;;;-144.30;84.94;84875.63;5071490;28;20200;-62
2023/09/23 03:12:43;;;;;;;19.15;8.65;;;;;;;-144.30;85.14;84861.72;5071641;28;20211;-62
2023/09/23 03:15:14;;;;;;;14.68;8.60;;;;;;;-144.30;85.00;84863.72;5071622;28;20198;-62
2023/09/23 03:17:50;;;;;;;19.40;9.48;;;;;;;-144.30;84.64;84867.69;5071464;28;20662;-62
2023/09/23 03:20:22;;;;;;;11.75;8.60;;;;;;;-144.30;85.07;84877.63;5070829;28;20195;-56
2023/09/23 03:22:52;;;;;;;12.93;8.40;;;;;;;-144.30;85.23;84887.56;5070380;28;20226;-62
2023/09/23 03:25:20;;;;;;;15.70;8.80;;;;;;;-144.30;85.43;84879.59;5071237;28;20211;-62
2023/09/23 03:27:49;;;;;;;19.15;9.55;;;;;;;-144.30;85.38;84879.59;5071498;28;20199;-62
2023/09/23 03:30:17;;;;;;;15.65;8.95;;;;;;;-144.30;85.32;84847.81;5070995;28;20200;-62
2023/09/23 03:32:45;;;;;;;17.80;8.95;;;;;;;-144.30;85.04;84895.50;5071431;28;20771;-62
2023/09/23 03:35:16;;;;;;;10.32;9.32;;;;;;;-144.30;85.13;84869.66;5071300;28;20192;-56
2023/09/23 03:37:47;;;;;;;17.05;8.60;;;;;;;-144.30;85.09;84859.72;5071075;28;20211;-62
2023/09/23 03:40:15;;;;;;;19.08;9.52;;;;;;;-144.30;85.28;84863.72;5071180;28;20200;-62
2023/09/23 03:42:42;;;;;;;16.88;8.57;;;;;;;-144.30;85.67;84899.47;5071330;28;20220;-57
2023/09/23 03:45:11;;;;;;;14.50;8.35;;;;;;;-144.30;85.45;84889.53;5070697;28;20203;-57
2023/09/23 03:47:38;;;;;;;18.25;8.73;;;;;;;-144.30;85.11;84839.84;5070975;28;20656;-57
2023/09/23 03:50:07;;;;;;;13.35;9.13;;;;;;;-144.30;84.64;84851.78;5070678;28;20200;-56
2023/09/23 03:52:36;;;;;;;18.13;9.40;;;;;;;-144.30;84.41;84825.94;5070727;28;20198;-57
2023/09/23 03:55:07;;;;;;;17.00;9.35;;;;;;;-144.30;84.19;84835.88;5070962;28;20196;-57
2023/09/23 03:57:34;;;;;;;15.30;9.65;;;;;;;-144.30;84.43;84843.84;5071061;28;20290;-62
2023/09/23 04:00:06;;;;;;;12.38;8.95;;;;;;;-144.30;84.43;84873.66;5070779;28;20207;-62
2023/09/23 04:02:37;;;;;;;18.00;9.38;;;;;;;-144.30;84.37;84859.72;5070798;28;20799;-62
2023/09/23 04:05:05;;;;;;;16.00;9.18;;;;;;;-144.30;84.59;84859.72;5070657;28;20208;-63
2023/09/23 04:07:33;;;;;;;21.85;10.63;;;;;;;-144.30;85.01;84851.78;5069627;28;20196;-56
2023/09/23 04:10:00;;;;;;;14.52;9.98;;;;;;;-144.30;85.25;84869.66;5069944;28;20196;-56
2023/09/23 04:12:28;;;;;;;20.20;10.43;;;;;;;-144.30;84.94;84851.78;5069135;28;20196;-55
2023/09/23 04:14:55;;;;;;;14.52;8.30;;;;;;;-144.30;84.68;84893.53;5069704;28;20246;-57
2023/09/23 04:17:24;;;;;;;19.40;8.55;;;;;;;-144.30;84.65;84857.75;5069099;28;20192;-57
2023/09/23 04:19:51;;;;;;;15.93;8.73;;;;;;;-144.30;84.63;84863.72;5069448;28;20200;-57
2023/09/23 04:22:18;;;;;;;20.45;9.27;;;;;;;-144.30;84.83;84863.72;5069175;28;20223;-56
2023/09/23 04:24:45;;;;;;;16.17;9.45;;;;;;;-144.30;84.58;84855.75;5064230;28;20641;-56
2023/09/23 04:27:12;;;;;;;21.30;8.85;;;;;;;-144.30;84.31;84855.75;5068712;28;21283;-57
2023/09/23 04:29:40;;;;;;;12.10;8.38;;;;;;;-144.30;84.48;84857.75;5067523;28;20715;-57
2023/09/23 04:32:07;;;;;;;20.42;7.82;;;;;;;-144.30;84.29;84875.63;5069203;28;20203;-57
2023/09/23 04:34:36;;;;;;;13.68;8.77;;;;;;;-144.30;84.09;84851.78;5069923;28;20257;-63
2023/09/23 04:37:04;;;;;;;13.80;8.60;;;;;;;-144.30;83.58;84883.59;5069095;28;20211;-63
2023/09/23 04:39:31;;;;;;;24.50;8.95;;;;;;;-144.30;83.14;84831.91;5068523;28;20199;-62
2023/09/23 04:42:00;;;;;;;14.73;8.98;;;;;;;-144.30;82.99;84776.25;5069445;28;20216;-56
2023/09/23 04:44:27;;;;;;;16.30;8.93;;;;;;;-144.30;82.92;84837.88;5068909;28;20200;-56
2023/09/23 04:46:55;;;;;;;20.42;9.25;;;;;;;-144.30;82.61;84800.09;5068783;28;20227;-56
2023/09/23 04:49:22;;;;;;;18.13;9.75;;;;;;;-144.30;82.07;84790.16;5068471;28;20196;-56
2023/09/23 04:51:49;;;;;;;23.13;9.27;;;;;;;-144.30;81.56;84668.94;5069054;28;20206;-57
2023/09/23 04:54:16;;;;;;;18.30;9.88;;;;;;;-144.30;81.11;84800.09;5068252;28;20191;-56
2023/09/23 04:56:43;;;;;;;15.70;8.98;;;;;;;-144.30;80.09;84736.50;5069425;28;20588;-55
2023/09/23 04:59:10;;;;;;;17.08;8.85;;;;;;;-144.30;79.61;84786.19;5069156;28;20680;-61
2023/09/23 05:01:37;;;;;;;15.45;8.88;;;;;;;-144.30;78.90;84740.47;5068949;28;20200;-61
2023/09/23 05:04:12;;;;;;;17.30;8.70;;;;;;;-144.30;78.22;84732.53;5068749;28;20249;-55
2023/09/23 05:06:39;;;;;;;20.85;10.20;;;;;;;-144.30;77.56;84724.56;5069465;28;20200;-54
2023/09/23 05:09:08;;;;;;;17.67;9.73;;;;;;;-144.30;77.15;84662.97;5068651;28;20195;-54
2023/09/23 05:11:36;;;;;;;17.23;10.32;;;;;;;-144.30;76.15;84664.94;5068995;28;20672;-61
2023/09/23 05:14:05;;;;;;;16.20;10.73;;;;;;;-144.30;75.23;84575.50;5069451;28;20675;-61
2023/09/23 05:16:32;;;;;;;19.60;11.05;;;;;;;-144.30;72.81;84529.81;5068912;28;20204;-60
2023/09/23 05:18:59;;;;;;;18.35;10.70;;;;;;;-144.30;69.42;84366.84;5068564;28;20236;-61
2023/09/23 05:21:28;;;;;;;20.45;9.15;;;;;;;-144.30;66.18;84239.66;5068718;28;20202;-61
2023/09/23 05:23:56;;;;;;;12.60;8.82;;;;;;;-144.30;62.71;84136.31;5068044;28;20223;-54
2023/09/23 05:26:23;;;;;;;18.40;7.90;;;;;;;-144.30;59.68;83993.22;5067287;28;20195;-61
2023/09/23 05:28:50;;;;;;;16.13;7.40;;;;;;;-144.30;56.87;83870.03;5068848;28;20196;-62
2023/09/23 05:31:17;;;;;;;16.50;7.80;;;;;;;-144.30;54.97;83730.94;5068718;28;20191;-61
2023/09/23 05:33:44;;;;;;;12.13;8.35;;;;;;;-144.30;53.02;83657.41;5068863;28;20199;-61
2023/09/23 05:36:11;;;;;;;21.60;8.77;;;;;;;-144.30;52.68;83673.31;5068078;28;20225;-62
2023/09/23 05:38:40;;;;;;;14.60;8.80;;;;;;;-144.30;50.92;83532.25;5068539;28;20246;-55
2023/09/23 05:41:07;;;;;;;17.17;9.77;;;;;;;-144.30;50.79;83544.16;5068633;28;20196;-55
2023/09/23 05:43:34;;;;;;;21.05;10.07;;;;;;;-144.30;49.33;83448.81;5068386;28;20716;-55
2023/09/23 05:46:05;;;;;;;18.65;9.15;;;;;;;-144.30;48.06;83357.41;5068061;28;20200;-62
2023/09/23 05:48:32;;;;;;;14.75;9.18;;;;;;;-144.30;46.94;83289.84;5068571;28;20192;-56
2023/09/23 05:51:08;;;;;;;16.45;8.75;;;;;;;-144.30;46.05;83204.44;5068372;28;20211;-56
2023/09/23 05:53:35;;;;;;;16.58;8.65;;;;;;;-144.30;44.86;83144.84;5068524;28;20279;-56
2023/09/23 05:56:04;;;;;;;15.93;7.82;;;;;;;-144.30;44.18;83061.41;5068558;28;20219;-62
2023/09/23 05:58:31;;;;;;;14.13;7.65;;;;;;;-144.30;42.79;82938.22;5068347;28;20694;-63
2023/09/23 06:00:58;;;;;;;13.02;7.75;;;;;;;-144.30;42.81;82989.88;5068133;28;20196;-63
2023/09/23 06:03:25;;;;;;;17.80;8.48;;;;;;;-144.30;42.49;83007.75;5068228;28;20230;-62
2023/09/23 06:05:52;;;;;;;10.85;6.75;;;;;;;-144.30;42.01;82920.34;5067515;28;20275;-62
2023/09/23 06:08:19;;;;;;;17.10;7.35;;;;;;;-144.30;41.13;82811.09;5067818;28;20283;-62
2023/09/23 06:10:46;;;;;;;17.92;7.97;;;;;;;-144.30;39.56;82610.47;5068457;28;20192;-63
2023/09/23 06:13:14;;;;;;;11.00;6.85;;;;;;;-144.30;37.39;82378.06;5068568;28;20621;-63
2023/09/23 06:15:41;;;;;;;21.98;7.38;;;;;;;-144.30;38.05;82439.66;5068382;28;20200;-62
2023/09/23 06:18:08;;;;;;;14.75;7.05;;;;;;;-144.30;37.78;82399.91;5068170;28;20224;-63
2023/09/23 06:20:35;;;;;;;10.60;6.57;;;;;;;-144.30;36.41;82201.31;5068475;28;20199;-63
2023/09/23 06:23:02;;;;;;;17.08;7.45;;;;;;;-144.30;34.98;81984.81;5068294;28;20230;-63
2023/09/23 06:25:30;;;;;;;18.37;7.40;;;;;;;-144.30;34.25;81847.78;5067591;28;20511;-56
2023/09/23 06:27:57;;;;;;;13.65;7.63;;;;;;;-144.30;33.73;81746.53;5064105;28;20214;-56
2023/09/23 06:30:25;;;;;;;20.08;7.78;;;;;;;-144.30;33.24;81653.19;5067695;28;20208;-56
2023/09/23 06:32:52;;;;;;;13.98;7.45;;;;;;;-144.30;32.68;81530.06;5067709;28;20196;-67
2023/09/23 06:35:19;;;;;;;14.35;7.10;;;;;;;-144.30;32.50;81522.13;5067781;28;20214;-66
2023/09/23 06:37:46;;;;;;;15.50;7.72;;;;;;;-144.30;32.50;81679.00;5067313;28;20203;-65
2023/09/23 06:40:14;;;;;;;22.67;11.70;;;;;;;-144.30;31.71;81422.84;5067455;28;20307;-66
2023/09/23 06:42:41;;;;;;;23.20;6.82;;;;;;;-144.30;30.57;81198.47;5066872;28;20227;-65
2023/09/23 06:45:09;;;;;;;14.45;6.95;;;;;;;-144.30;30.14;80966.19;5067675;28;20203;-65
2023/09/23 06:47:38;;;;;;;17.67;6.50;;;;;;;-144.30;29.54;80855.00;5067769;28;20627;-57
2023/09/23 06:50:06;;;;;;;18.83;7.03;;;;;;;-144.30;29.34;80723.97;5068805;28;20565;-57
2023/09/23 06:52:33;;;;;;;10.48;7.40;;;;;;;-144.30;29.12;80680.28;5067657;28;20198;-64
2023/09/23 06:55:00;;;;;;;16.27;7.22;;;;;;;-144.30;28.94;80779.56;5066911;28;20680;-64
2023/09/23 06:57:27;;;;;;;15.48;8.05;;;;;;;-144.30;29.32;80906.63;5067946;28;20195;-64
2023/09/23 06:59:53;;;;;;;13.93;8.68;;;;;;;-144.30;29.17;80803.38;5070289;28;20213;-65
2023/09/23 07:02:20;;;;;;;22.95;8.27;;;;;;;-144.30;29.19;80797.41;5071655;28;20209;-65
2023/09/23 07:04:49;;;;;;;25.30;14.90;;;;;;;-144.30;28.67;80678.31;5072384;28;20635;-65
2023/09/23 07:07:16;;;;;;;18.65;9.65;;;;;;;-144.30;27.96;80493.69;5072159;28;20199;-65
2023/09/23 07:09:42;;;;;;;17.98;7.40;;;;;;;-144.30;28.56;80775.59;5071809;28;20270;-66
2023/09/23 07:12:12;;;;;;;28.60;18.30;;;;;;;-144.30;28.71;80634.63;5071952;28;20195;-64
2023/09/23 07:14:39;;;;;;;17.92;7.85;;;;;;;-144.30;27.93;80465.91;5071802;28;20218;-64
2023/09/23 07:17:07;;;;;;;28.83;17.45;;;;;;;-144.30;27.92;80438.09;5071854;28;20191;-64
2023/09/23 07:19:34;;;;;;;11.25;6.72;;;;;;;-144.30;27.39;80434.13;5071613;28;20288;-65
2023/09/23 07:22:02;;;;;;;14.23;5.70;;;;;;;-144.30;27.52;80370.59;5071762;28;20747;-64
2023/09/23 07:24:32;;;;;;;20.52;6.05;;;;;;;-144.30;27.18;80148.28;5071329;28;20229;-65
2023/09/23 07:27:00;;;;;;;15.75;6.18;;;;;;;-144.30;27.52;80418.25;5071512;28;20252;-65
2023/09/23 07:29:27;;;;;;;13.88;6.10;;;;;;;-144.30;27.21;80231.66;5071411;28;20653;-64
2023/09/23 07:31:54;;;;;;;11.68;6.07;;;;;;;-144.30;26.89;79971.63;5071532;28;20286;-65
2023/09/23 07:34:21;;;;;;;23.10;7.10;;;;;;;-144.30;27.08;80330.91;5071165;28;20200;-64
2023/09/23 07:36:48;;;;;;;18.10;7.32;;;;;;;-144.30;27.04;80207.84;5071649;28;20210;-64
2023/09/23 07:39:18;;;;;;;17.63;6.85;;;;;;;-144.30;26.56;80074.84;5071507;28;20203;-64
2023/09/23 07:41:45;;;;;;;15.25;6.15;;;;;;;-144.30;26.99;80402.38;5071340;28;20584;-64
2023/09/23 07:44:12;;;;;;;8.32;5.80;;;;;;;-144.30;27.98;80733.88;5071378;28;20222;-63
2023/09/23 07:46:38;;;;;;;18.75;6.25;;;;;;;-144.30;28.30;80870.88;5071233;28;20203;-64
2023/09/23 07:49:06;;;;;;;15.23;6.47;;;;;;;-144.30;28.57;80896.69;5071195;28;20195;-64
2023/09/23 07:51:33;;;;;;;16.98;6.80;;;;;;;-144.30;30.03;81406.97;5071202;28;20282;-63
2023/09/23 07:54:01;;;;;;;14.70;8.48;;;;;;;-144.30;31.86;81849.78;5071264;28;20691;-64
2023/09/23 07:56:30;;;;;;;12.80;6.78;;;;;;;-144.30;33.17;82082.13;5070946;28;20195;-56
2023/09/23 07:58:56;;;;;;;14.85;8.82;;;;;;;-144.30;34.01;82213.22;5071052;28;20195;-63
2023/09/23 08:01:23;;;;;;;18.17;10.40;;;;;;;-144.30;35.30;82407.88;5070649;28;20694;-63
2023/09/23 08:03:50;;;;;;;19.23;7.72;;;;;;;-144.30;36.35;82608.47;5070969;28;20224;-64
2023/09/23 08:06:17;;;;;;;22.33;9.05;;;;;;;-144.30;37.28;82761.44;5071201;28;20673;-64
2023/09/23 08:08:44;;;;;;;20.83;7.35;;;;;;;-144.30;38.92;82940.22;5070351;28;20196;-64
2023/09/23 08:11:14;;;;;;;14.68;7.95;;;;;;;-144.30;39.86;82979.94;5069964;28;20661;-64
2023/09/23 08:13:42;;;;;;;14.50;6.90;;;;;;;-144.30;41.02;83093.19;5070233;28;20196;-56
2023/09/23 08:16:09;;;;;;;24.08;13.50;;;;;;;-144.30;41.72;83200.47;5066303;28;20593;-56
2023/09/23 08:18:36;;;;;;;21.40;10.70;;;;;;;-144.30;41.78;83144.84;5070371;28;20231;-55
2023/09/23 08:21:05;;;;;;;10.10;5.78;;;;;;;-144.30;41.95;83210.38;5070533;28;20235;-55
2023/09/23 08:23:32;;;;;;;15.70;7.10;;;;;;;-144.30;42.59;83164.69;5069124;28;20722;-55
2023/09/23 08:25:59;;;;;;;18.55;8.57;;;;;;;-144.30;42.46;83130.94;5070334;28;20208;-55
2023/09/23 08:28:26;;;;;;;20.13;7.78;;;;;;;-144.30;41.77;83156.75;5070062;28;20254;-55
2023/09/23 08:30:55;;;;;;;18.73;7.82;;;;;;;-144.30;41.79;83138.88;5069824;28;20204;-54
2023/09/23 08:33:22;;;;;;;14.00;7.50;;;;;;;-144.30;41.57;83152.78;5069909;28;20353;-55
2023/09/23 08:35:51;;;;;;;19.60;6.38;;;;;;;-144.30;41.30;83103.13;5070750;28;20337;-55
2023/09/23 08:38:17;;;;;;;13.38;6.35;;;;;;;-144.30;41.34;83091.19;5070440;28;20246;-54
2023/09/23 08:40:45;;;;;;;15.73;6.38;;;;;;;-144.30;41.09;83061.41;5070142;28;20199;-59
2023/09/23 08:43:12;;;;;;;13.65;6.35;;;;;;;-144.30;40.84;83069.34;5069955;28;20224;-60
2023/09/23 08:45:43;;;;;;;16.70;6.75;;;;;;;-144.30;40.73;83073.31;5069700;28;20730;-60
2023/09/23 08:48:13;;;;;;;14.25;5.97;;;;;;;-144.30;40.62;83109.06;5070380;28;20286;-63
2023/09/23 08:50:43;;;;;;;17.67;6.55;;;;;;;-144.30;40.45;83055.44;5069890;28;20591;-60
2023/09/23 08:53:12;;;;;;;19.52;6.50;;;;;;;-144.30;40.14;83075.31;5069726;28;20668;-59
2023/09/23 08:55:39;;;;;;;17.63;6.35;;;;;;;-144.30;39.87;83087.22;5069746;28;20207;-54
2023/09/23 08:58:06;;;;;;;16.85;6.45;;;;;;;-144.30;39.55;82989.88;5069773;28;20196;-55
2023/09/23 09:00:33;;;;;;;15.38;6.07;;;;;;;-144.30;39.40;82920.34;5068928;28;20649;-54
2023/09/23 09:03:01;;;;;;;14.52;6.30;;;;;;;-144.30;39.31;82868.69;5059034;28;20201;-55
2023/09/23 09:05:38;;;;;;;9.80;5.95;;;;;;;-144.30;39.32;82960.06;5053031;28;20194;-62
2023/09/23 09:08:06;;;;;;;16.52;5.90;;;;;;;-144.30;39.03;82942.19;5069313;28;20231;-62
2023/09/23 09:10:33;;;;;;;21.75;6.38;;;;;;;-144.30;39.05;82964.06;5067427;28;20715;-62
2023/09/23 09:13:02;;;;;;;17.27;6.68;;;;;;;-144.30;39.02;82968.03;5068876;28;20235;-62
2023/09/23 09:15:30;;;;;;;15.82;5.70;;;;;;;-144.30;39.43;82952.13;5068471;28;20199;-62
2023/09/23 09:17:59;;;;;;;20.45;6.35;;;;;;;-144.30;38.83;82952.13;5069436;28;20232;-62
2023/09/23 09:20:26;;;;;;;20.88;6.22;;;;;;;-144.30;39.12;83210.38;5069235;28;20196;-63
2023/09/23 09:22:55;;;;;;;18.33;5.93;;;;;;;-144.30;38.93;82993.84;5069036;28;20593;-56
2023/09/23 09:25:22;;;;;;;14.35;6.00;;;;;;;-144.30;38.87;82900.47;5069602;28;20606;-56
2023/09/23 09:27:50;;;;;;;18.48;6.40;;;;;;;-144.30;38.97;82964.06;5069370;28;20218;-63
2023/09/23 09:30:19;;;;;;;15.90;6.93;;;;;;;-144.30;39.25;82989.88;5068766;28;20215;-62
2023/09/23 09:32:47;;;;;;;14.23;6.22;;;;;;;-144.30;38.80;82940.22;5068227;28;20207;-63
2023/09/23 09:35:15;;;;;;;14.55;6.60;;;;;;;-144.30;39.14;82964.06;5068171;28;20715;-63
2023/09/23 09:37:45;;;;;;;17.98;7.03;;;;;;;-144.30;39.04;82970.00;5068720;28;20286;-62
2023/09/23 09:40:17;;;;;;;17.45;6.82;;;;;;;-144.30;39.39;82960.06;5069328;28;20206;-56
2023/09/23 09:42:53;;;;;;;10.82;6.40;;;;;;;-144.30;39.41;82991.88;5069061;28;20200;-56
2023/09/23 09:45:21;;;;;;;19.25;7.28;;;;;;;-144.30;39.48;82966.03;5069463;28;20230;-56
2023/09/23 09:47:49;;;;;;;17.25;7.32;;;;;;;-144.30;39.79;83017.69;5069377;28;20216;-57
2023/09/23 09:50:17;;;;;;;16.15;6.60;;;;;;;-144.30;39.82;83009.75;5069382;28;20616;-63
2023/09/23 09:52:45;;;;;;;20.63;7.07;;;;;;;-144.30;39.53;82944.19;5069285;28;20199;-62
2023/09/23 09:55:17;;;;;;;17.48;7.05;;;;;;;-144.30;39.95;82954.13;5067756;28;20283;-62
2023/09/23 09:57:44;;;;;;;16.63;7.15;;;;;;;-144.30;39.96;82958.09;5068741;28;20381;-62
2023/09/23 10:00:23;;;;;;;16.83;6.43;;;;;;;-144.30;39.50;82991.88;5068825;28;20440;-57
2023/09/23 10:02:50;;;;;;;11.75;6.93;;;;;;;-144.30;39.33;82993.84;5068715;28;20587;-58
2023/09/23 10:05:17;;;;;;;19.00;7.25;;;;;;;-144.30;39.87;83017.69;5068884;28;20212;-57
2023/09/23 10:07:54;;;;;;;15.52;7.10;;;;;;;-144.30;40.33;82973.97;5069221;28;20200;-58
2023/09/23 10:10:31;;;;;;;20.63;6.80;;;;;;;-144.30;40.28;82993.84;5069142;28;20195;-58
2023/09/23 10:13:00;;;;;;;17.05;6.72;;;;;;;-144.30;40.23;82968.03;5068439;28;20217;-57
2023/09/23 10:15:28;;;;;;;15.13;7.53;;;;;;;-144.30;40.04;82960.06;5066236;28;20210;-57
2023/09/23 10:17:57;;;;;;;13.55;6.95;;;;;;;-144.30;40.01;82956.09;5068467;28;20674;-58
2023/09/23 10:20:33;;;;;;;18.08;6.95;;;;;;;-144.30;40.09;82952.13;5068820;28;20616;-56
2023/09/23 10:23:01;;;;;;;16.30;7.78;;;;;;;-144.30;40.11;82932.28;5069134;28;20612;-57
2023/09/23 10:25:39;;;;;;;17.48;8.68;;;;;;;-144.30;40.36;82932.28;5068511;28;20219;-56
2023/09/23 10:28:08;;;;;;;16.67;8.07;;;;;;;-144.30;40.19;82896.50;5068779;28;20224;-57
2023/09/23 10:30:37;;;;;;;18.67;8.65;;;;;;;-144.30;40.34;82952.13;5068536;28;20196;-58
2023/09/23 10:33:05;;;;;;;33.70;8.52;;;;;;;-144.30;40.54;82964.06;5070601;28;20606;-57
2023/09/23 10:35:33;;;;;;;15.15;7.60;;;;;;;-144.30;40.50;82928.28;5072347;28;20192;-57
2023/09/23 10:38:01;;;;;;;15.82;7.15;;;;;;;-144.30;40.08;82866.72;5072532;28;20200;-66
2023/09/23 10:40:28;;;;;;;10.77;6.25;;;;;;;-144.30;40.16;82896.50;5072619;28;20200;-66
2023/09/23 10:43:07;;;;;;;17.35;7.80;;;;;;;-144.30;40.50;82898.50;5072602;28;20200;-68
2023/09/23 10:45:34;;;;;;;15.73;6.90;;;;;;;-144.30;39.98;82874.66;5072147;28;20222;-58
2023/09/23 10:48:02;;;;;;;13.45;7.80;;;;;;;-144.30;40.20;82860.75;5072593;28;20200;-55
2023/09/23 10:50:29;;;;;;;18.48;9.13;;;;;;;-144.30;40.38;82860.75;5072090;28;20203;-56
2023/09/23 10:52:55;;;;;;;14.85;7.38;;;;;;;-144.30;40.02;82864.72;5069477;28;20553;-56
2023/09/23 10:55:24;;;;;;;22.25;7.57;;;;;;;-144.30;39.81;82821.03;5068890;28;20198;-58
2023/09/23 10:57:51;;;;;;;15.35;7.13;;;;;;;-144.30;39.68;82787.25;5071727;28;20203;-55
2023/09/23 11:00:25;;;;;;;18.30;7.55;;;;;;;-144.30;39.34;82803.16;5071833;28;20196;-59
2023/09/23 11:02:52;;;;;;;16.67;7.25;;;;;;;-144.30;39.62;82761.44;5071924;28;20235;-56
2023/09/23 11:05:21;;;;;;;16.23;6.70;;;;;;;-144.30;39.46;82825.00;5071879;28;20313;-56
2023/09/23 11:07:48;;;;;;;19.83;6.97;;;;;;;-144.30;39.36;82809.09;5071913;28;20290;-57
2023/09/23 11:10:16;;;;;;;12.85;6.60;;;;;;;-144.30;39.91;82821.03;5071896;28;20210;-57
2023/09/23 11:12:45;;;;;;;20.08;8.15;;;;;;;-144.30;39.75;82836.91;5071637;28;20392;-57
2023/09/23 11:15:13;;;;;;;15.35;7.70;;;;;;;-144.30;39.68;82821.03;5071944;28;20565;-55